irontemplates.com alexa rank chart, irontemplates.com alexa rank daily changes

irontemplates.com alexa rank chart, irontemplates.com alexa rank daily changes

irontemplates.com
Actual rank:
232 906

RANK HISTORY

Date Rank Diff
2018/04/26 232 906 -52 212
2018/04/25 285 118 -104 786
2018/04/24 389 904 +209 224
2018/04/20 180 680 -239 621
2018/04/19 420 301 -141 784
2018/04/17 562 085 +40 982
2018/04/16 521 103 +134 254
2018/04/15 386 849 +56 717
2018/04/14 330 132 +146 335
2018/04/13 183 797 -136 919
2018/04/12 320 716 +48 388
2018/04/11 272 328 -458 998
2018/04/10 731 326 +488 177
2018/04/08 243 149 +70 899
2018/04/07 172 250 -220 491
2018/04/06 392 741 -77 579
2018/04/05 470 320 +156 169
2018/04/04 314 151 -11 665
2018/04/02 325 816 -73 196
2018/04/01 399 012 -152 728
2018/03/31 551 740 -26 306
2018/03/30 578 046 +224 898
2018/03/29 353 148 -120 799
2018/03/28 473 947 -459 256
2018/03/27 933 203 +625 046
2018/03/25 308 157 -78 991
2018/03/23 387 148 +92 077
2018/03/22 295 071 +57 339
2018/03/21 237 732 -53 923
2018/03/19 291 655 -115 693
2018/03/18 407 348 +53 833
2018/03/17 353 515 +106 490
2018/03/16 247 025 -1 179
2018/03/15 248 204 -89 609
2018/03/14 337 813 +133 449
2018/03/13 204 364 -25 753
2018/03/12 230 117 -12 350
2018/03/11 242 467 -83 436
2018/03/09 325 903 -126 361
2018/03/08 452 264 +232 520
2018/03/07 219 744 -147 601
2018/03/06 367 345 -177 283
2018/03/05 544 628 +262 718
2018/03/04 281 910 -93 262
2018/03/03 375 172 +141 960
2018/03/02 233 212 -77 978
2018/03/01 311 190 +62 877
2018/02/28 248 313 -87 627
2018/02/27 335 940 +113 034
2018/02/26 222 906 -184 883
2018/02/25 407 789

WIDGET FOR YOUR SITE

DOMAINS WITH THE NEAREST RANK

Domain Rank
ired.gr 232 901
guidewhat.com 232 902
slotcatalog.com 232 903
pokemonpets.com 232 904
t-systems-mms.com 232 905
irontemplates.com 232 906
gillette.de 232 907
gadismelayustimm-3gp.blogspot.my 232 908
wow-helper.com 232 909
erightsoft.com 232 910
analyticsinhr.com 232 911

DOMAINS WITH THE NEAREST RANK BY TLD .com

Domain Rank
spi-global.com 232 898
guidewhat.com 232 902
slotcatalog.com 232 903
pokemonpets.com 232 904
t-systems-mms.com 232 905
irontemplates.com 232 906
wow-helper.com 232 909
erightsoft.com 232 910
analyticsinhr.com 232 911
securityinfowatch.com 232 913
ivoirematin.com 232 914